Time;durP1;ratioP1;P1;durP2;ratioP2;P2;SDS_P1;SDS_P2;PMS_P1;PMS_P2;Temp;Humidity;BMP_temperature;BMP_pressure;BME280_temperature;BME280_humidity;BME280_pressure;Samples;Min_cycle;Max_cycle;Signal;HPM_P1;HPM_P2
2022/07/24 00:00:30;;;;;;;24.30;18.80;;;;;;;20.51;86.54;100252.53;1748096;82;25353;-65
2022/07/24 00:02:58;;;;;;;20.82;18.35;;;;;;;20.49;86.37;100246.63;1746389;81;25859;-65
2022/07/24 00:05:25;;;;;;;23.07;19.45;;;;;;;20.48;86.28;100243.66;1706904;84;25530;-65
2022/07/24 00:07:51;;;;;;;21.95;19.60;;;;;;;20.49;86.51;100248.00;1742924;82;25514;-65
2022/07/24 00:10:17;;;;;;;21.10;18.90;;;;;;;20.48;86.77;100245.84;1742914;82;25581;-65
2022/07/24 00:12:43;;;;;;;21.90;19.65;;;;;;;20.48;86.49;100246.41;1707048;83;25417;-65
2022/07/24 00:15:11;;;;;;;24.72;19.52;;;;;;;20.45;86.51;100246.59;1678479;85;27389;-65
2022/07/24 00:17:37;;;;;;;23.18;20.05;;;;;;;20.46;86.26;100250.13;1742894;81;25429;-65
2022/07/24 00:20:07;;;;;;;23.22;19.80;;;;;;;20.43;86.45;100253.06;1703147;83;25580;-66
2022/07/24 00:22:33;;;;;;;25.80;21.12;;;;;;;20.44;86.52;100264.23;1706778;84;25548;-65
2022/07/24 00:24:59;;;;;;;22.27;19.90;;;;;;;20.44;86.71;100258.73;1742965;82;25531;-65
2022/07/24 00:27:25;;;;;;;22.77;20.35;;;;;;;20.45;86.63;100262.27;1706913;84;27387;-65
2022/07/24 00:29:52;;;;;;;22.82;20.35;;;;;;;20.45;86.70;100260.90;1742984;81;25549;-66
2022/07/24 00:32:18;;;;;;;26.40;21.27;;;;;;;20.44;86.92;100256.59;1742911;82;25569;-64
2022/07/24 00:34:44;;;;;;;23.67;21.10;;;;;;;20.43;86.85;100251.69;1706914;84;25570;-65
2022/07/24 00:37:10;;;;;;;25.15;21.35;;;;;;;20.43;86.86;100257.73;1743021;81;25390;-65
2022/07/24 00:39:36;;;;;;;26.52;22.48;;;;;;;20.42;86.66;100263.83;1685712;83;27637;-65
2022/07/24 00:42:04;;;;;;;25.48;22.60;;;;;;;20.43;86.73;100267.36;1706591;83;25428;-65
2022/07/24 00:44:30;;;;;;;26.75;22.73;;;;;;;20.42;86.94;100267.95;1742967;82;25466;-65
2022/07/24 00:46:56;;;;;;;29.35;23.52;;;;;;;20.42;87.09;100263.83;1742897;82;25588;-65
2022/07/24 00:49:22;;;;;;;30.05;23.07;;;;;;;20.42;87.22;100263.83;1742960;82;25179;-65
2022/07/24 00:51:52;;;;;;;30.50;23.87;;;;;;;20.43;87.37;100270.10;1742970;82;28019;-65
2022/07/24 00:54:21;;;;;;;28.70;23.10;;;;;;;20.43;87.06;100272.85;1742951;82;25629;-66
2022/07/24 00:56:51;;;;;;;26.57;23.73;;;;;;;20.43;87.33;100272.28;1742999;82;25670;-66
2022/07/24 00:59:19;;;;;;;28.60;25.02;;;;;;;20.42;87.35;100275.41;1742830;82;26773;-64
2022/07/24 01:01:49;;;;;;;28.67;24.20;;;;;;;20.43;87.67;100283.84;1742953;81;25566;-66
2022/07/24 01:04:17;;;;;;;30.48;24.63;;;;;;;20.40;87.61;100280.46;1741207;82;27390;-64
2022/07/24 01:06:46;;;;;;;27.35;24.02;;;;;;;20.40;87.81;100279.91;1741262;81;25563;-64
2022/07/24 01:09:12;;;;;;;30.60;24.65;;;;;;;20.40;87.81;100277.72;1742858;82;25191;-64
2022/07/24 01:11:39;;;;;;;30.45;25.08;;;;;;;20.42;88.06;100285.02;1742875;82;25991;-64
2022/07/24 01:14:07;;;;;;;28.40;24.00;;;;;;;20.43;88.35;100286.59;1742919;81;25612;-64
2022/07/24 01:16:34;;;;;;;28.38;24.45;;;;;;;20.42;88.18;100283.65;1742930;82;26815;-64
2022/07/24 01:19:00;;;;;;;29.63;25.30;;;;;;;20.42;88.25;100281.69;1742740;82;25668;-66
2022/07/24 01:21:26;;;;;;;32.83;25.35;;;;;;;20.43;88.42;100288.77;1742869;82;25429;-64
2022/07/24 01:23:52;;;;;;;30.68;24.02;;;;;;;20.43;88.41;100287.95;1742875;82;25447;-64
2022/07/24 01:26:18;;;;;;;28.67;24.40;;;;;;;20.43;88.36;100288.77;1742866;82;25594;-64
2022/07/24 01:28:45;;;;;;;28.62;24.15;;;;;;;20.42;88.65;100287.17;1742931;81;27410;-64
2022/07/24 01:31:10;;;;;;;31.82;23.50;;;;;;;20.41;88.55;100291.08;1742828;82;25745;-65
2022/07/24 01:33:36;;;;;;;27.62;24.10;;;;;;;20.42;88.74;100295.42;1742916;82;25602;-64
2022/07/24 01:36:05;;;;;;;26.82;21.80;;;;;;;20.40;89.26;100281.28;1742919;82;26162;-65
2022/07/24 01:38:31;;;;;;;23.32;19.45;;;;;;;20.36;88.36;100308.48;1743051;82;25379;-65
2022/07/24 01:40:57;;;;;;;15.40;13.80;;;;;;;20.31;88.15;100299.42;1742947;81;27294;-71
2022/07/24 01:43:24;;;;;;;14.38;12.85;;;;;;;20.23;87.06;100302.47;1742840;82;25745;-65
2022/07/24 01:45:50;;;;;;;16.90;10.53;;;;;;;20.15;86.30;100308.45;1742830;82;25496;-65
2022/07/24 01:48:16;;;;;;;13.18;10.45;;;;;;;20.05;85.52;100313.22;1742814;82;25473;-64
2022/07/24 01:50:42;;;;;;;15.13;10.38;;;;;;;19.95;85.39;100314.66;1742867;82;25453;-64
2022/07/24 01:53:08;;;;;;;11.00;9.70;;;;;;;19.86;85.20;100313.56;1742861;82;27348;-64
2022/07/24 01:55:35;;;;;;;9.45;8.53;;;;;;;19.83;85.20;100310.77;1742775;82;25381;-64
2022/07/24 01:58:01;;;;;;;9.60;8.30;;;;;;;19.75;84.63;100321.66;1742876;82;25600;-64
2022/07/24 02:00:27;;;;;;;8.60;7.70;;;;;;;19.67;84.62;100321.31;1742802;82;25596;-65
2022/07/24 02:02:53;;;;;;;10.23;7.67;;;;;;;19.60;84.45;100318.47;1742879;82;25423;-65
2022/07/24 02:05:19;;;;;;;8.58;6.80;;;;;;;19.55;84.39;100321.53;1743053;82;27316;-65
2022/07/24 02:07:45;;;;;;;8.28;6.25;;;;;;;19.47;84.08;100322.58;1743809;82;25795;-65
2022/07/24 02:10:14;;;;;;;9.65;6.67;;;;;;;19.37;83.27;100323.98;1747921;82;25394;-65
2022/07/24 02:12:40;;;;;;;8.88;5.78;;;;;;;19.29;83.36;100331.88;1747940;82;25411;-65
2022/07/24 02:15:08;;;;;;;7.37;5.17;;;;;;;19.20;83.06;100328.81;1747921;82;25612;-65
2022/07/24 02:17:34;;;;;;;9.50;5.12;;;;;;;19.11;82.59;100332.39;1747950;81;27334;-65
2022/07/24 02:20:01;;;;;;;8.38;4.28;;;;;;;18.99;82.02;100321.03;1747798;82;25740;-65
2022/07/24 02:22:27;;;;;;;5.00;4.28;;;;;;;18.89;81.63;100319.48;1747873;82;25638;-65
2022/07/24 02:24:53;;;;;;;6.42;3.87;;;;;;;18.80;81.62;100325.17;1747960;82;25431;-64
2022/07/24 02:27:19;;;;;;;6.42;3.52;;;;;;;18.70;81.24;100334.77;1748037;82;25485;-64
2022/07/24 02:29:45;;;;;;;4.22;3.30;;;;;;;18.58;81.07;100328.09;1748066;82;28022;-66
2022/07/24 02:32:11;;;;;;;5.70;3.45;;;;;;;18.48;80.93;100323.98;1747934;82;25575;-63
2022/07/24 02:34:38;;;;;;;4.62;3.72;;;;;;;18.40;80.99;100323.04;1748085;82;25614;-65
2022/07/24 02:37:04;;;;;;;6.85;3.72;;;;;;;18.32;81.04;100328.73;1748026;82;25688;-64
2022/07/24 02:39:30;;;;;;;7.08;4.08;;;;;;;18.25;81.23;100324.72;1747994;82;25539;-64
2022/07/24 02:41:56;;;;;;;6.70;3.55;;;;;;;18.20;81.31;100326.94;1748072;82;27336;-64
2022/07/24 02:44:22;;;;;;;4.10;3.70;;;;;;;18.15;81.43;100332.14;1747971;82;25601;-64
2022/07/24 02:46:48;;;;;;;6.95;4.42;;;;;;;18.10;81.60;100333.20;1748053;82;25478;-64
2022/07/24 02:49:14;;;;;;;9.85;4.35;;;;;;;18.08;81.82;100334.70;1748043;82;25567;-64
2022/07/24 02:51:40;;;;;;;6.37;4.10;;;;;;;18.05;81.85;100334.08;1748091;82;25656;-64
2022/07/24 02:54:06;;;;;;;10.63;4.03;;;;;;;18.00;82.04;100328.30;1748098;81;27378;-64
2022/07/24 02:56:32;;;;;;;5.80;4.00;;;;;;;17.98;81.97;100336.08;1747922;82;25569;-64
2022/07/24 02:58:59;;;;;;;7.08;4.00;;;;;;;17.96;82.10;100332.10;1748034;82;25370;-64
2022/07/24 03:01:26;;;;;;;6.78;4.12;;;;;;;17.94;82.06;100330.31;1747910;82;25651;-64
2022/07/24 03:03:52;;;;;;;9.50;4.25;;;;;;;17.92;82.02;100332.03;1747951;82;25468;-64
2022/07/24 03:06:18;;;;;;;5.70;3.58;;;;;;;17.88;81.88;100337.42;1748018;82;27360;-64
2022/07/24 03:08:44;;;;;;;7.05;4.00;;;;;;;17.87;82.06;100337.78;1747919;82;25708;-64
2022/07/24 03:11:10;;;;;;;6.90;3.47;;;;;;;17.86;82.20;100340.26;1748011;82;25400;-64
2022/07/24 03:13:36;;;;;;;4.20;3.62;;;;;;;17.86;82.38;100347.94;1747969;82;26321;-64
2022/07/24 03:16:03;;;;;;;7.72;4.03;;;;;;;17.84;82.40;100347.48;1748088;82;25483;-64
2022/07/24 03:18:29;;;;;;;8.15;4.30;;;;;;;17.83;82.25;100353.31;1748042;82;27365;-64
2022/07/24 03:20:55;;;;;;;6.12;3.92;;;;;;;17.82;82.11;100352.49;1747857;82;25742;-64
2022/07/24 03:23:21;;;;;;;6.05;3.70;;;;;;;17.81;82.08;100353.66;1748004;82;25598;-64
2022/07/24 03:25:48;;;;;;;4.70;3.42;;;;;;;17.80;81.99;100356.17;1747950;82;26376;-63
2022/07/24 03:28:14;;;;;;;8.25;3.85;;;;;;;17.81;82.28;100355.58;1748034;82;25375;-64
2022/07/24 03:30:40;;;;;;;5.35;3.70;;;;;;;17.82;82.37;100358.55;1748018;81;27380;-65
2022/07/24 03:33:07;;;;;;;9.38;3.75;;;;;;;17.82;82.41;100362.66;1747943;81;25749;-63
2022/07/24 03:35:33;;;;;;;6.08;3.98;;;;;;;17.83;82.42;100366.98;1748028;81;25552;-63
2022/07/24 03:37:59;;;;;;;6.03;4.25;;;;;;;17.84;82.40;100367.19;1747957;82;25627;-63
2022/07/24 03:40:25;;;;;;;4.17;3.87;;;;;;;17.83;82.52;100367.77;1747976;82;25641;-64
2022/07/24 03:42:51;;;;;;;8.75;3.67;;;;;;;17.84;82.46;100374.03;1748001;82;27329;-64
2022/07/24 03:45:17;;;;;;;5.55;4.20;;;;;;;17.84;82.57;100372.66;1747889;82;25734;-64
2022/07/24 03:47:43;;;;;;;4.85;4.03;;;;;;;17.83;82.48;100375.98;1747942;82;25558;-64
2022/07/24 03:50:09;;;;;;;6.83;4.05;;;;;;;17.85;82.72;100373.67;1747937;82;25631;-64
2022/07/24 03:52:36;;;;;;;6.10;4.47;;;;;;;17.87;82.96;100376.09;1747958;82;25535;-64
2022/07/24 03:55:03;;;;;;;6.05;4.30;;;;;;;17.89;82.83;100377.88;1747970;82;27321;-64
2022/07/24 03:57:30;;;;;;;4.75;4.22;;;;;;;17.90;82.77;100377.53;1747919;81;25585;-64
2022/07/24 03:59:56;;;;;;;6.03;4.08;;;;;;;17.91;82.90;100375.58;1748018;81;25465;-65
2022/07/24 04:02:22;;;;;;;6.62;4.33;;;;;;;17.91;82.61;100378.31;1747888;82;25598;-63
2022/07/24 04:04:48;;;;;;;8.90;4.25;;;;;;;17.89;82.51;100377.33;1746081;81;25366;-64
2022/07/24 04:07:14;;;;;;;6.15;4.12;;;;;;;17.90;82.45;100376.75;1742994;82;27453;-64
2022/07/24 04:09:41;;;;;;;5.08;4.37;;;;;;;17.89;82.58;100381.44;1742857;82;25398;-64
2022/07/24 04:12:08;;;;;;;8.43;3.90;;;;;;;17.87;82.60;100382.34;1742905;82;25612;-64
2022/07/24 04:14:35;;;;;;;5.20;3.90;;;;;;;17.86;82.46;100379.41;1742937;82;26298;-64
2022/07/24 04:17:01;;;;;;;8.50;4.50;;;;;;;17.85;82.55;100390.09;1742980;81;25450;-64
2022/07/24 04:19:27;;;;;;;7.55;4.37;;;;;;;17.86;82.87;100385.40;1742965;82;27430;-64
2022/07/24 04:21:54;;;;;;;10.38;4.00;;;;;;;17.85;82.70;100387.35;1742860;82;25565;-64
2022/07/24 04:24:20;;;;;;;5.33;4.17;;;;;;;17.86;82.90;100387.61;1742941;81;25571;-64
2022/07/24 04:26:46;;;;;;;7.60;4.30;;;;;;;17.85;82.82;100390.09;1742870;82;25621;-66
2022/07/24 04:29:13;;;;;;;10.45;4.80;;;;;;;17.87;83.03;100387.03;1714755;82;25404;-64
2022/07/24 04:31:45;;;;;;;7.17;4.47;;;;;;;17.90;83.23;100389.84;1748751;82;27379;-66
2022/07/24 04:34:11;;;;;;;7.42;4.80;;;;;;;17.92;83.27;100391.64;1704380;83;25521;-65
2022/07/24 04:36:37;;;;;;;8.28;5.33;;;;;;;17.97;83.52;100385.11;1704451;84;25667;-66
2022/07/24 04:39:04;;;;;;;7.58;4.70;;;;;;;18.03;83.49;100395.20;1704390;84;25611;-66
2022/07/24 04:41:30;;;;;;;4.62;4.00;;;;;;;18.06;83.40;100391.75;1704513;84;25560;-66
2022/07/24 04:43:56;;;;;;;9.45;4.17;;;;;;;18.09;83.44;100398.67;1704405;84;28064;-66
2022/07/24 04:46:22;;;;;;;8.53;4.12;;;;;;;18.11;83.20;100395.58;1704659;84;25699;-66
2022/07/24 04:48:48;;;;;;;7.62;4.00;;;;;;;18.13;82.84;100401.48;1705101;84;25730;-67
2022/07/24 04:51:14;;;;;;;6.55;3.52;;;;;;;18.14;82.82;100405.81;1705008;84;26019;-67
2022/07/24 04:53:40;;;;;;;7.50;3.80;;;;;;;18.17;82.82;100404.33;1665458;84;25464;-66
2022/07/24 04:56:07;;;;;;;5.10;3.75;;;;;;;18.17;82.52;100410.58;1704971;84;26919;-66
2022/07/24 04:58:33;;;;;;;7.67;3.65;;;;;;;18.19;82.75;100411.02;1705071;84;25790;-66
2022/07/24 05:01:00;;;;;;;9.73;3.87;;;;;;;18.21;82.34;100413.39;1705002;84;25646;-64
2022/07/24 05:03:26;;;;;;;9.00;3.62;;;;;;;18.24;82.44;100405.84;1705012;84;26291;-66
2022/07/24 05:05:52;;;;;;;6.83;4.05;;;;;;;18.25;82.29;100408.22;1704980;83;25764;-66
2022/07/24 05:08:18;;;;;;;4.95;3.90;;;;;;;18.29;82.16;100417.30;1705157;83;28013;-66
2022/07/24 05:10:44;;;;;;;6.92;3.83;;;;;;;18.35;82.13;100415.64;1708040;82;25759;-66
2022/07/24 05:13:10;;;;;;;5.50;3.20;;;;;;;18.39;82.01;100416.50;1742744;82;25614;-63
2022/07/24 05:15:37;;;;;;;4.95;2.90;;;;;;;18.43;81.90;100415.43;1742766;82;25642;-67
2022/07/24 05:18:03;;;;;;;5.78;3.15;;;;;;;18.50;81.38;100423.00;1742831;82;25625;-66
2022/07/24 05:20:29;;;;;;;5.20;3.27;;;;;;;18.51;80.82;100424.60;1692440;83;27527;-66
2022/07/24 05:22:55;;;;;;;13.10;4.42;;;;;;;18.52;80.32;100417.17;1706958;83;25624;-67
2022/07/24 05:25:22;;;;;;;8.30;3.70;;;;;;;18.55;79.83;100426.05;1689870;84;25406;-66
2022/07/24 05:27:48;;;;;;;9.98;3.15;;;;;;;18.54;79.14;100427.19;1707066;84;26217;-66
2022/07/24 05:30:14;;;;;;;7.87;3.30;;;;;;;18.55;79.22;100422.72;1691570;83;25649;-67
2022/07/24 05:32:40;;;;;;;8.93;3.65;;;;;;;18.59;79.07;100422.79;1703205;84;27323;-67
2022/07/24 05:35:08;;;;;;;5.60;3.27;;;;;;;18.61;78.64;100424.03;1706959;83;25614;-68
2022/07/24 05:37:34;;;;;;;4.42;3.05;;;;;;;18.67;78.87;100422.57;1689952;84;25576;-67
2022/07/24 05:40:00;;;;;;;7.20;3.05;;;;;;;18.75;78.90;100430.37;1738750;82;25700;-68
2022/07/24 05:42:26;;;;;;;8.65;3.10;;;;;;;18.83;78.74;100426.65;1742769;82;25710;-69
2022/07/24 05:44:52;;;;;;;7.00;2.67;;;;;;;18.90;78.22;100427.92;1742815;81;27619;-69
2022/07/24 05:47:18;;;;;;;6.33;3.30;;;;;;;18.94;77.59;100432.91;1703263;82;25673;-71
2022/07/24 05:49:45;;;;;;;4.53;3.08;;;;;;;18.99;77.07;100425.77;1661955;85;25649;-70
2022/07/24 05:52:11;;;;;;;3.90;2.40;;;;;;;19.01;76.43;100432.45;1678162;85;25742;-69
2022/07/24 05:54:37;;;;;;;6.15;3.00;;;;;;;19.10;76.30;100430.86;1706834;84;25681;-68
2022/07/24 05:57:03;;;;;;;4.55;2.42;;;;;;;19.19;75.99;100430.06;1671173;84;27386;-68
2022/07/24 05:59:29;;;;;;;5.97;2.20;;;;;;;19.29;75.61;100436.09;1706793;84;25432;-69
2022/07/24 06:01:55;;;;;;;3.72;2.52;;;;;;;19.37;75.04;100435.06;1693187;83;25383;-71
2022/07/24 06:04:22;;;;;;;4.00;1.92;;;;;;;19.45;74.16;100431.88;1706810;84;25681;-70
2022/07/24 06:06:48;;;;;;;3.80;2.45;;;;;;;19.49;72.46;100438.20;1706794;84;25654;-69
2022/07/24 06:09:14;;;;;;;3.35;2.10;;;;;;;19.53;72.80;100439.86;1695239;83;27328;-70
2022/07/24 06:11:40;;;;;;;6.45;2.50;;;;;;;19.60;72.97;100438.59;1695340;84;25716;-70
2022/07/24 06:14:06;;;;;;;6.17;1.98;;;;;;;19.72;72.84;100436.24;1691121;84;25676;-70
2022/07/24 06:16:32;;;;;;;3.00;2.10;;;;;;;19.84;72.46;100438.03;1689892;84;25700;-70
2022/07/24 06:18:59;;;;;;;3.42;1.92;;;;;;;19.93;70.63;100444.04;1689963;84;25656;-70
2022/07/24 06:21:25;;;;;;;2.08;1.85;;;;;;;19.98;70.74;100444.90;1690537;84;27410;-70
2022/07/24 06:23:51;;;;;;;4.40;1.70;;;;;;;20.05;69.83;100436.77;1690423;84;25738;-68
2022/07/24 06:26:17;;;;;;;3.60;2.17;;;;;;;20.13;69.99;100443.95;1688755;84;25404;-69
2022/07/24 06:28:43;;;;;;;3.47;1.92;;;;;;;20.24;69.48;100434.48;1686392;84;26101;-69
2022/07/24 06:31:09;;;;;;;2.90;1.77;;;;;;;20.30;68.62;100439.28;1691015;84;25569;-70
2022/07/24 06:33:35;;;;;;;1.77;1.62;;;;;;;20.36;67.83;100442.48;1692358;84;27402;-70
2022/07/24 06:36:01;;;;;;;5.40;1.65;;;;;;;20.45;67.38;100442.20;1693389;84;25649;-69
2022/07/24 06:38:28;;;;;;;2.37;1.65;;;;;;;20.55;66.10;100442.14;1693528;84;25486;-69
2022/07/24 06:40:54;;;;;;;5.50;1.60;;;;;;;20.65;66.82;100439.58;1693419;84;25663;-68
2022/07/24 06:43:20;;;;;;;3.12;1.55;;;;;;;20.78;66.20;100441.48;1693470;84;25429;-69
2022/07/24 06:45:46;;;;;;;3.65;1.62;;;;;;;20.95;65.83;100443.45;1693511;84;27337;-69
2022/07/24 06:48:13;;;;;;;2.22;1.92;;;;;;;21.16;65.62;100442.87;1693402;84;25718;-69
2022/07/24 06:50:39;;;;;;;2.35;1.82;;;;;;;21.33;64.98;100449.12;1693509;84;25615;-69
2022/07/24 06:53:05;;;;;;;2.50;1.50;;;;;;;21.48;64.66;100444.58;1693427;84;25708;-69
2022/07/24 06:55:30;;;;;;;2.77;1.40;;;;;;;21.72;64.90;100447.93;1693505;84;25581;-69
2022/07/24 06:57:57;;;;;;;4.25;1.65;;;;;;;21.93;62.40;100443.97;1693403;84;27420;-69
2022/07/24 07:00:23;;;;;;;11.43;2.22;;;;;;;22.08;62.18;100447.59;1693396;84;25550;-69
2022/07/24 07:02:50;;;;;;;2.00;1.40;;;;;;;22.19;61.25;100439.41;1693424;84;25539;-69
2022/07/24 07:05:16;;;;;;;6.03;1.72;;;;;;;22.37;61.65;100448.59;1692702;84;27805;-69
2022/07/24 07:07:43;;;;;;;2.20;1.47;;;;;;;22.58;61.54;100441.60;1691555;84;25580;-69
2022/07/24 07:10:10;;;;;;;4.58;1.65;;;;;;;22.78;60.46;100438.52;1747804;81;27398;-69
2022/07/24 07:12:36;;;;;;;5.72;1.55;;;;;;;22.98;60.38;100450.78;1742896;81;25545;-68
2022/07/24 07:15:05;;;;;;;4.90;1.65;;;;;;;22.98;57.96;100441.13;1742953;82;25582;-69
2022/07/24 07:17:31;;;;;;;4.60;1.40;;;;;;;22.97;57.88;100451.17;1743168;82;25871;-69
2022/07/24 07:19:57;;;;;;;5.10;1.50;;;;;;;23.06;57.65;100458.53;1742995;82;25569;-69
2022/07/24 07:22:23;;;;;;;4.50;1.42;;;;;;;23.24;57.80;100448.89;1742963;82;27400;-69
2022/07/24 07:24:49;;;;;;;5.35;1.57;;;;;;;23.54;57.74;100452.68;1742876;82;25671;-70
2022/07/24 07:27:15;;;;;;;2.58;1.65;;;;;;;23.77;57.09;100455.06;1742957;82;25423;-70
2022/07/24 07:29:41;;;;;;;2.20;1.30;;;;;;;23.98;56.98;100457.03;1742918;82;27704;-70
2022/07/24 07:32:08;;;;;;;2.67;1.20;;;;;;;24.02;55.38;100462.55;1710924;82;25807;-70
2022/07/24 07:34:34;;;;;;;2.50;1.42;;;;;;;23.94;54.08;100459.02;1736623;82;27382;-70
2022/07/24 07:37:00;;;;;;;4.17;1.95;;;;;;;23.89;54.68;100464.14;1736488;82;25400;-70
2022/07/24 07:39:26;;;;;;;2.95;1.20;;;;;;;24.03;54.93;100467.68;1736386;82;25415;-70
2022/07/24 07:41:52;;;;;;;3.15;1.50;;;;;;;24.16;54.85;100466.69;1736114;82;25704;-70
2022/07/24 07:44:18;;;;;;;3.00;1.40;;;;;;;24.34;55.09;100465.24;1736170;82;25609;-70
2022/07/24 07:46:44;;;;;;;3.10;1.55;;;;;;;24.45;54.58;100472.14;1736144;82;27397;-70
2022/07/24 07:49:11;;;;;;;6.28;1.70;;;;;;;24.36;53.45;100478.06;1736290;82;25631;-70
2022/07/24 07:51:37;;;;;;;4.47;1.85;;;;;;;24.20;53.03;100474.97;1736343;82;25619;-70
2022/07/24 07:54:03;;;;;;;4.92;1.67;;;;;;;24.13;53.06;100481.89;1736059;82;25684;-70
2022/07/24 07:56:31;;;;;;;2.40;1.75;;;;;;;24.11;53.42;100482.86;1722138;81;25388;-70
2022/07/24 07:58:57;;;;;;;4.05;1.77;;;;;;;24.10;53.08;100491.75;1736309;81;27314;-70
2022/07/24 08:01:23;;;;;;;3.15;1.57;;;;;;;24.06;53.13;100492.36;1735837;82;25744;-70
2022/07/24 08:03:50;;;;;;;2.90;2.12;;;;;;;24.04;52.87;100491.37;1736223;82;25643;-70
2022/07/24 08:06:16;;;;;;;1.95;1.50;;;;;;;23.97;52.95;100496.09;1739471;82;25680;-70
2022/07/24 08:08:42;;;;;;;2.65;1.92;;;;;;;23.95;52.61;100493.73;1741365;82;25458;-70
2022/07/24 08:11:08;;;;;;;2.90;1.30;;;;;;;23.95;52.68;100502.02;1741034;82;27309;-70
2022/07/24 08:13:34;;;;;;;2.02;1.40;;;;;;;24.03;52.63;100488.40;1741097;82;25434;-69
2022/07/24 08:16:00;;;;;;;4.25;1.25;;;;;;;24.19;52.84;100497.64;1740874;82;25600;-70
2022/07/24 08:18:26;;;;;;;4.35;1.52;;;;;;;24.20;52.30;100503.38;1741095;82;25693;-70
2022/07/24 08:20:53;;;;;;;2.50;1.30;;;;;;;24.30;52.64;100505.16;1741250;82;25463;-70
2022/07/24 08:23:19;;;;;;;2.05;1.22;;;;;;;24.48;52.12;100504.50;1741240;82;27403;-70
2022/07/24 08:25:45;;;;;;;4.65;1.57;;;;;;;24.65;52.09;100501.52;1740694;82;25760;-70
2022/07/24 08:28:11;;;;;;;1.92;1.50;;;;;;;24.71;51.55;100502.69;1741430;82;25458;-70
2022/07/24 08:30:37;;;;;;;5.72;1.42;;;;;;;24.87;51.30;100508.35;1741206;82;25691;-71
2022/07/24 08:33:03;;;;;;;2.75;1.70;;;;;;;24.72;50.75;100506.23;1740855;82;25568;-69
2022/07/24 08:35:29;;;;;;;1.65;1.40;;;;;;;24.67;51.25;100505.27;1740843;82;27888;-70
2022/07/24 08:37:56;;;;;;;3.00;1.77;;;;;;;24.63;51.44;100498.36;1740492;82;25438;-70
2022/07/24 08:40:23;;;;;;;3.95;1.42;;;;;;;24.65;51.53;100509.03;1741222;82;25466;-70
2022/07/24 08:42:50;;;;;;;2.80;1.30;;;;;;;24.76;51.17;100506.42;1741041;82;25634;-69
2022/07/24 08:45:16;;;;;;;3.22;1.40;;;;;;;24.70;50.65;100511.37;1741173;82;25548;-70
2022/07/24 08:47:42;;;;;;;3.35;1.22;;;;;;;24.49;50.30;100515.76;1741226;82;26857;-70
2022/07/24 08:50:10;;;;;;;3.25;1.90;;;;;;;24.26;50.34;100512.64;1741220;82;25743;-70
2022/07/24 08:52:38;;;;;;;1.72;1.37;;;;;;;24.12;50.76;100508.71;1741075;82;25643;-70
2022/07/24 08:55:06;;;;;;;1.87;1.65;;;;;;;23.93;50.78;100517.42;1741758;82;25620;-70
2022/07/24 08:57:33;;;;;;;3.20;1.60;;;;;;;23.81;50.62;100510.28;1740582;82;25302;-70
2022/07/24 08:59:59;;;;;;;5.90;1.60;;;;;;;23.62;51.35;100515.61;1741233;82;27100;-70
2022/07/24 09:02:27;;;;;;;1.65;1.07;;;;;;;23.59;51.67;100515.00;1741259;82;25388;-70
2022/07/24 09:05:00;;;;;;;1.85;1.32;;;;;;;23.49;51.65;100511.82;1741055;82;25642;-70
2022/07/24 09:07:29;;;;;;;3.83;1.47;;;;;;;23.42;51.74;100518.72;1740593;82;26254;-70
2022/07/24 09:10:07;;;;;;;3.75;1.60;;;;;;;23.34;52.27;100520.47;1741341;82;25561;-70
2022/07/24 09:12:36;;;;;;;2.10;1.30;;;;;;;23.37;52.75;100526.00;1739710;82;27540;-70
2022/07/24 09:15:16;;;;;;;2.67;1.30;;;;;;;23.45;52.90;100525.44;1741236;82;25737;-70
2022/07/24 09:17:53;;;;;;;3.55;1.95;;;;;;;23.52;52.66;100528.20;1740840;82;25636;-69
2022/07/24 09:20:21;;;;;;;3.37;1.60;;;;;;;23.69;53.08;100518.36;1740967;82;25689;-69
2022/07/24 09:22:49;;;;;;;5.90;1.50;;;;;;;23.88;52.10;100521.96;1717683;82;25216;-69
2022/07/24 09:25:28;;;;;;;2.67;1.87;;;;;;;23.86;52.41;100522.35;1741081;82;27386;-70
2022/07/24 09:28:01;;;;;;;3.20;1.60;;;;;;;23.93;52.71;100522.94;1741292;82;25650;-70
2022/07/24 09:30:36;;;;;;;3.67;1.42;;;;;;;23.95;52.19;100529.64;1741266;82;25683;-70
2022/07/24 09:33:19;;;;;;;1.55;1.45;;;;;;;23.91;52.14;100525.31;1740998;82;25982;-69
2022/07/24 09:35:49;;;;;;;2.02;1.62;;;;;;;23.79;51.84;100528.63;1741329;82;25635;-69
2022/07/24 09:38:22;;;;;;;4.53;1.70;;;;;;;23.57;51.79;100531.95;1716453;82;27411;-69
2022/07/24 09:40:56;;;;;;;3.10;1.40;;;;;;;23.43;52.40;100532.72;1741124;82;25656;-69
2022/07/24 09:43:32;;;;;;;1.55;1.45;;;;;;;23.33;52.49;100529.34;1741071;82;26270;-69
2022/07/24 09:46:06;;;;;;;3.50;1.55;;;;;;;23.25;52.68;100536.02;1741063;82;25618;-69
2022/07/24 09:48:38;;;;;;;2.65;1.90;;;;;;;23.25;53.19;100524.98;1740605;82;25739;-70
2022/07/24 09:51:13;;;;;;;2.27;1.55;;;;;;;23.35;53.45;100535.27;1741355;82;27309;-70
2022/07/24 09:53:41;;;;;;;4.72;1.50;;;;;;;23.48;53.48;100532.94;1741075;81;25541;-70
2022/07/24 09:56:11;;;;;;;2.00;1.20;;;;;;;23.55;53.58;100536.27;1741001;82;25372;-69
2022/07/24 09:58:46;;;;;;;5.00;1.40;;;;;;;23.73;53.28;100535.72;1741217;82;25846;-69
2022/07/24 10:01:15;;;;;;;2.25;1.25;;;;;;;23.82;53.17;100534.78;1740942;82;25592;-70
2022/07/24 10:03:45;;;;;;;1.42;0.93;;;;;;;23.94;53.23;100536.94;1740788;82;27960;-69
2022/07/24 10:06:16;;;;;;;2.20;1.30;;;;;;;23.99;52.88;100553.11;1739959;82;27242;-70
2022/07/24 10:08:46;;;;;;;5.42;3.60;;;;;;;23.81;53.68;100555.85;1740544;82;25682;-69
2022/07/24 10:11:13;;;;;;;3.65;1.95;;;;;;;23.55;54.36;100549.52;1741307;82;25640;-69
2022/07/24 10:13:41;;;;;;;4.60;1.42;;;;;;;23.17;54.63;100555.89;1740969;82;25496;-69
2022/07/24 10:16:18;;;;;;;3.00;1.80;;;;;;;22.94;55.91;100557.56;1741075;82;27374;-69
2022/07/24 10:19:01;;;;;;;2.50;1.50;;;;;;;22.81;56.78;100551.58;1740078;82;25423;-69
2022/07/24 10:21:33;;;;;;;3.37;2.00;;;;;;;22.82;58.13;100548.25;1741186;82;25561;-69
2022/07/24 10:24:31;;;;;;;3.62;1.65;;;;;;;23.02;59.14;100554.23;1740996;82;25623;-69
2022/07/24 10:27:04;;;;;;;3.47;1.40;;;;;;;23.19;58.57;100554.12;1740569;82;25457;-69
2022/07/24 10:29:34;;;;;;;4.03;1.47;;;;;;;23.51;59.09;100550.08;1741102;82;27500;-70
2022/07/24 10:32:01;;;;;;;2.87;1.70;;;;;;;23.90;57.97;100547.20;1740945;82;25846;-70
2022/07/24 10:34:48;;;;;;;1.52;1.42;;;;;;;23.98;57.06;100550.95;1741211;82;25717;-70
2022/07/24 10:37:43;;;;;;;3.17;1.82;;;;;;;23.98;55.46;100559.23;1704115;84;25730;-69
2022/07/24 10:40:29;;;;;;;3.75;1.60;;;;;;;23.83;55.92;100557.66;1704121;84;25592;-69
2022/07/24 10:43:11;;;;;;;4.12;1.80;;;;;;;23.80;55.76;100555.08;1704384;84;28126;-69
2022/07/24 10:45:45;;;;;;;2.12;1.82;;;;;;;23.80;55.92;100554.27;1704037;84;25763;-70
2022/07/24 10:48:25;;;;;;;2.98;1.80;;;;;;;23.83;56.18;100557.05;1704451;84;25742;-69
2022/07/24 10:51:08;;;;;;;3.35;1.75;;;;;;;24.00;56.30;100560.23;1704446;84;26103;-70
2022/07/24 10:53:42;;;;;;;2.62;1.65;;;;;;;24.13;55.63;100553.13;1704275;84;25456;-70
2022/07/24 10:56:28;;;;;;;3.85;2.10;;;;;;;24.26;55.45;100561.79;1704462;84;27516;-69
2022/07/24 10:59:12;;;;;;;2.50;2.30;;;;;;;24.35;55.08;100562.80;1703990;84;25566;-69
2022/07/24 11:01:50;;;;;;;2.02;1.82;;;;;;;24.35;54.03;100562.19;1679342;84;25751;-69
2022/07/24 11:04:24;;;;;;;3.58;2.02;;;;;;;24.24;53.90;100564.95;1704224;84;25674;-68
2022/07/24 11:07:12;;;;;;;4.03;2.20;;;;;;;24.17;54.26;100563.58;1704369;83;25607;-68
2022/07/24 11:10:01;;;;;;;5.87;2.03;;;;;;;24.20;54.32;100562.01;1704519;84;28267;-69
2022/07/24 11:12:30;;;;;;;3.00;1.50;;;;;;;24.36;54.69;100562.97;1710648;82;34814;-70
2022/07/24 11:17:48;;;;;;;2.52;1.90;;;;;;;25.09;53.25;100565.16;1740747;82;25558;-70
2022/07/24 11:20:18;;;;;;;3.45;1.92;;;;;;;25.33;53.05;100564.88;1742506;81;25602;-69
2022/07/24 11:22:49;;;;;;;3.30;1.90;;;;;;;25.57;52.79;100563.75;1736116;82;28013;-70
2022/07/24 11:25:24;;;;;;;1.75;1.37;;;;;;;25.78;52.13;100561.45;1740060;82;25716;-69
2022/07/24 11:27:59;;;;;;;2.75;1.82;;;;;;;25.92;51.21;100568.87;1740660;82;25581;-69